Time;durP1;ratioP1;P1;durP2;ratioP2;P2;SDS_P1;SDS_P2;PMS_P1;PMS_P2;Temp;Humidity;BMP_temperature;BMP_pressure;BME280_temperature;BME280_humidity;BME280_pressure;Samples;Min_cycle;Max_cycle;Signal;HPM_P1;HPM_P2
2023/12/27 00:01:45;;;;;;;10.13;5.72;;;1.50;99.90;;;;;;5021071;28;20045;-54
2023/12/27 00:04:12;;;;;;;15.90;7.35;;;1.40;99.90;;;;;;5022573;28;20038;-57
2023/12/27 00:06:39;;;;;;;10.85;5.55;;;1.30;99.90;;;;;;5016711;28;20038;-54
2023/12/27 00:09:06;;;;;;;13.60;5.63;;;1.20;99.90;;;;;;5026886;28;20065;-53
2023/12/27 00:11:34;;;;;;;8.10;4.90;;;1.20;99.90;;;;;;5012879;28;20549;-53
2023/12/27 00:14:02;;;;;;;12.00;5.47;;;1.10;99.90;;;;;;5021722;28;20054;-54
2023/12/27 00:16:29;;;;;;;13.93;5.95;;;1.20;99.90;;;;;;5027044;28;20049;-52
2023/12/27 00:18:56;;;;;;;13.82;4.95;;;1.20;99.90;;;;;;5022374;28;20124;-53
2023/12/27 00:21:23;;;;;;;9.63;3.60;;;1.30;99.90;;;;;;5030628;28;20096;-57
2023/12/27 00:23:50;;;;;;;7.38;3.45;;;1.30;99.90;;;;;;5025308;28;20037;-56
2023/12/27 00:26:17;;;;;;;9.00;3.42;;;1.40;99.90;;;;;;5033921;28;20049;-57
2023/12/27 00:28:54;;;;;;;4.82;2.20;;;1.40;99.90;;;;;;5020246;28;20368;-53
2023/12/27 00:31:20;;;;;;;5.70;2.13;;;1.40;99.90;;;;;;5025303;28;20154;-54
2023/12/27 00:33:47;;;;;;;6.82;2.53;;;1.50;99.90;;;;;;5023950;28;20041;-55
2023/12/27 00:36:20;;;;;;;7.32;2.78;;;1.50;99.90;;;;;;5022225;28;20050;-55
2023/12/27 00:38:47;;;;;;;6.93;2.50;;;1.50;99.90;;;;;;5017062;28;20038;-53
2023/12/27 00:41:14;;;;;;;4.80;2.15;;;1.50;99.90;;;;;;5003663;28;20045;-54
2023/12/27 00:43:41;;;;;;;6.95;2.50;;;1.50;99.90;;;;;;5001116;28;20041;-54
2023/12/27 00:46:08;;;;;;;6.50;2.60;;;1.40;99.90;;;;;;5029289;28;20441;-55
2023/12/27 00:48:35;;;;;;;12.85;4.65;;;1.40;99.90;;;;;;5003614;28;20093;-56
2023/12/27 00:51:02;;;;;;;9.75;4.50;;;1.30;99.90;;;;;;5009825;28;20495;-55
2023/12/27 00:53:29;;;;;;;10.48;4.95;;;1.30;99.90;;;;;;5004306;28;20079;-54
2023/12/27 00:55:56;;;;;;;9.50;4.68;;;1.30;99.90;;;;;;5004379;28;20413;-59
2023/12/27 00:58:23;;;;;;;12.68;5.25;;;1.20;99.90;;;;;;5015695;28;20046;-57
2023/12/27 01:00:50;;;;;;;9.77;5.10;;;1.20;99.90;;;;;;5002615;28;20512;-54
2023/12/27 01:03:17;;;;;;;8.50;4.72;;;1.20;99.90;;;;;;5002045;28;20046;-53
2023/12/27 01:05:44;;;;;;;9.63;4.78;;;1.30;99.90;;;;;;5002666;28;20076;-54
2023/12/27 01:08:11;;;;;;;4.80;3.17;;;1.30;99.90;;;;;;5021942;28;20046;-54
2023/12/27 01:10:37;;;;;;;9.35;4.35;;;1.30;99.90;;;;;;5020703;28;20072;-53
2023/12/27 01:13:04;;;;;;;5.90;3.70;;;1.30;99.90;;;;;;5025014;28;20046;-56
2023/12/27 01:15:31;;;;;;;8.18;3.97;;;1.30;99.90;;;;;;5001909;28;20049;-53
2023/12/27 01:17:58;;;;;;;8.30;3.95;;;1.30;99.90;;;;;;5003964;28;20133;-53
2023/12/27 01:20:27;;;;;;;7.25;3.42;;;1.30;99.90;;;;;;5004786;28;20046;-54
2023/12/27 01:22:54;;;;;;;7.13;3.58;;;1.30;99.90;;;;;;5009442;28;20132;-53
2023/12/27 01:25:21;;;;;;;5.75;3.03;;;1.30;99.90;;;;;;5025295;28;20087;-55
2023/12/27 01:27:48;;;;;;;5.07;3.00;;;1.40;99.90;;;;;;5014407;28;20136;-54
2023/12/27 01:30:18;;;;;;;6.55;3.00;;;1.40;99.90;;;;;;5015371;28;20041;-54
2023/12/27 01:32:45;;;;;;;8.13;3.47;;;1.40;99.90;;;;;;5013524;28;20041;-55
2023/12/27 01:35:12;;;;;;;12.18;5.20;;;1.50;99.90;;;;;;5014922;28;20041;-56
2023/12/27 01:37:39;;;;;;;13.20;6.30;;;1.50;99.90;;;;;;5014005;28;20069;-53
2023/12/27 01:40:07;;;;;;;13.75;5.38;;;1.60;99.90;;;;;;5015114;28;20045;-55
2023/12/27 01:42:33;;;;;;;10.63;5.05;;;1.70;99.90;;;;;;5022737;28;20069;-55
2023/12/27 01:45:01;;;;;;;;;;;1.70;99.90;;;;;;5014213;28;20056;-57
2023/12/27 01:47:28;;;;;;;9.00;3.60;;;1.80;99.90;;;;;;5032664;28;19927;-54
2023/12/27 01:49:54;;;;;;;6.30;3.75;;;1.70;99.90;;;;;;5014631;28;20095;-56
2023/12/27 01:52:22;;;;;;;10.35;4.10;;;1.70;99.90;;;;;;5028764;28;20053;-53
2023/12/27 01:54:50;;;;;;;8.73;4.20;;;1.60;99.90;;;;;;5028321;28;20471;-57
2023/12/27 01:57:17;;;;;;;;;;;1.60;99.90;;;;;;5015051;28;20148;-56
2023/12/27 01:59:45;;;;;;;9.07;4.53;;;1.60;99.90;;;;;;5014807;28;19927;-55
2023/12/27 02:02:13;;;;;;;8.98;4.30;;;1.70;99.90;;;;;;5014570;28;20072;-53
2023/12/27 02:04:40;;;;;;;7.75;4.10;;;1.70;99.90;;;;;;5014267;28;20521;-55
2023/12/27 02:07:08;;;;;;;5.68;3.00;;;1.70;99.90;;;;;;5014589;28;20049;-55
2023/12/27 02:09:52;;;;;;;5.63;1.80;;;1.70;99.90;;;;;;5028511;28;20047;-56
2023/12/27 02:12:25;;;;;;;4.47;1.30;;;1.60;99.90;;;;;;5032731;28;20125;-58
2023/12/27 02:14:52;;;;;;;2.08;1.50;;;1.50;99.90;;;;;;5006530;28;20042;-54
2023/12/27 02:17:20;;;;;;;5.10;1.80;;;1.60;99.90;;;;;;5032023;28;20041;-53
2023/12/27 02:19:47;;;;;;;3.50;1.50;;;1.60;99.90;;;;;;5012468;28;20049;-55
2023/12/27 02:22:22;;;;;;;;;;;1.70;99.90;;;;;;5014867;28;20045;-57
2023/12/27 02:24:51;;;;;;;4.30;1.90;;;1.70;99.90;;;;;;5023272;28;19922;-53
2023/12/27 02:27:18;;;;;;;5.18;2.40;;;1.80;99.90;;;;;;5012182;28;20053;-54
2023/12/27 02:29:45;;;;;;;4.50;2.38;;;1.80;99.90;;;;;;5031862;28;20065;-56
2023/12/27 02:32:12;;;;;;;7.40;4.05;;;1.80;99.90;;;;;;5027365;28;20055;-55
2023/12/27 02:34:39;;;;;;;11.88;5.93;;;1.80;99.90;;;;;;5013597;28;20076;-53
2023/12/27 02:37:06;;;;;;;11.95;6.05;;;1.80;99.90;;;;;;5031511;28;20116;-56
2023/12/27 02:39:47;;;;;;;3.30;2.33;;;1.90;99.90;;;;;;4954486;28;20444;-53
2023/12/27 02:42:13;;;;;;;6.30;2.28;;;1.80;99.90;;;;;;4962854;28;20521;-53
2023/12/27 02:44:40;;;;;;;12.32;5.75;;;1.80;99.90;;;;;;4968720;28;20555;-54
2023/12/27 02:47:07;;;;;;;10.95;6.15;;;1.80;99.90;;;;;;4977178;28;20124;-53
2023/12/27 02:49:35;;;;;;;13.57;6.22;;;1.80;99.90;;;;;;4953509;28;20051;-54
2023/12/27 02:52:02;;;;;;;11.27;6.50;;;1.90;99.90;;;;;;4966540;28;20042;-54
2023/12/27 02:54:28;;;;;;;12.45;6.35;;;1.90;99.90;;;;;;4980985;28;20463;-54
2023/12/27 02:56:55;;;;;;;12.00;4.45;;;1.90;99.90;;;;;;4970336;28;20598;-53
2023/12/27 02:59:22;;;;;;;7.47;4.38;;;1.90;99.90;;;;;;4964461;28;20055;-54
2023/12/27 03:01:50;;;;;;;6.95;4.05;;;1.80;99.90;;;;;;4973545;28;20129;-56
2023/12/27 03:04:17;;;;;;;12.82;5.75;;;1.90;99.90;;;;;;4974576;28;20043;-55
2023/12/27 03:06:44;;;;;;;11.27;5.82;;;1.90;99.90;;;;;;4959903;28;20488;-56
2023/12/27 03:09:11;;;;;;;9.82;5.70;;;1.90;99.90;;;;;;4969387;28;20496;-58
2023/12/27 03:11:38;;;;;;;13.43;4.57;;;2.00;99.90;;;;;;5008268;28;20053;-57
2023/12/27 03:14:06;;;;;;;7.80;4.53;;;2.00;99.90;;;;;;5013158;28;20045;-55
2023/12/27 03:16:33;;;;;;;9.27;4.88;;;1.90;99.90;;;;;;5002759;28;20045;-58
2023/12/27 03:19:01;;;;;;;10.63;4.72;;;1.90;99.90;;;;;;5029193;28;20034;-57
2023/12/27 03:21:28;;;;;;;;;;;1.90;99.90;;;;;;5031920;28;20077;-55
2023/12/27 03:23:55;;;;;;;8.07;3.72;;;1.90;99.90;;;;;;5028193;28;19921;-56
2023/12/27 03:26:21;;;;;;;7.00;3.30;;;1.90;99.90;;;;;;5013544;28;20048;-56
2023/12/27 03:28:48;;;;;;;7.28;3.35;;;1.90;99.90;;;;;;5013217;28;20045;-55
2023/12/27 03:31:15;;;;;;;7.50;3.17;;;1.90;99.90;;;;;;5011306;28;20049;-57
2023/12/27 03:33:44;;;;;;;7.95;3.22;;;1.80;99.90;;;;;;5030153;28;20401;-58
2023/12/27 03:36:11;;;;;;;7.97;3.50;;;1.70;99.90;;;;;;5013014;28;20046;-57
2023/12/27 03:38:37;;;;;;;7.70;3.40;;;1.70;99.90;;;;;;5028842;28;20064;-55
2023/12/27 03:41:04;;;;;;;6.60;3.58;;;1.70;99.90;;;;;;5029121;28;20034;-55
2023/12/27 03:43:31;;;;;;;6.22;3.35;;;1.70;99.90;;;;;;5013120;28;20072;-55
2023/12/27 03:45:59;;;;;;;5.32;3.33;;;1.70;99.90;;;;;;5030311;28;20033;-55
2023/12/27 03:48:26;;;;;;;7.82;3.72;;;1.70;99.90;;;;;;5013379;28;20049;-58
2023/12/27 03:50:53;;;;;;;8.48;4.07;;;1.60;99.90;;;;;;5014750;28;20132;-56
2023/12/27 03:53:20;;;;;;;10.68;4.63;;;1.60;99.90;;;;;;5033647;28;20099;-56
2023/12/27 03:55:47;;;;;;;7.32;4.25;;;1.70;99.90;;;;;;5033394;28;20140;-56
2023/12/27 03:58:14;;;;;;;7.70;4.28;;;1.70;99.90;;;;;;5016599;28;20045;-60
2023/12/27 04:00:40;;;;;;;12.65;4.50;;;1.70;99.90;;;;;;5017350;28;20057;-55
2023/12/27 04:03:08;;;;;;;7.20;3.90;;;1.60;99.90;;;;;;5016142;28;20460;-57
2023/12/27 04:05:34;;;;;;;8.48;3.90;;;1.70;99.90;;;;;;5033135;28;20518;-57
2023/12/27 04:08:01;;;;;;;8.90;4.88;;;1.70;99.90;;;;;;5009247;28;20517;-57
2023/12/27 04:10:31;;;;;;;7.68;4.13;;;1.70;99.90;;;;;;5034746;28;20062;-57
2023/12/27 04:12:58;;;;;;;9.00;3.50;;;1.70;99.90;;;;;;5009058;28;20087;-56
2023/12/27 04:15:25;;;;;;;10.38;5.57;;;1.60;99.90;;;;;;5011738;28;20038;-55
2023/12/27 04:17:53;;;;;;;13.15;5.70;;;1.60;99.90;;;;;;5032381;28;20076;-57
2023/12/27 04:20:20;;;;;;;12.57;6.40;;;1.50;99.90;;;;;;5015711;28;20445;-57
2023/12/27 04:22:47;;;;;;;10.88;5.85;;;1.50;99.90;;;;;;5034271;28;20482;-55
2023/12/27 04:25:14;;;;;;;10.60;5.68;;;1.50;99.90;;;;;;5014656;28;20049;-57
2023/12/27 04:27:41;;;;;;;10.38;5.68;;;1.50;99.90;;;;;;5016489;28;20072;-55
2023/12/27 04:30:08;;;;;;;9.73;5.75;;;1.50;99.90;;;;;;5016491;28;20513;-58
2023/12/27 04:32:36;;;;;;;12.90;6.55;;;1.50;99.90;;;;;;5016098;28;20514;-54
2023/12/27 04:35:03;;;;;;;17.13;7.05;;;1.40;99.90;;;;;;5033959;28;20068;-56
2023/12/27 04:37:29;;;;;;;11.38;6.22;;;1.40;99.90;;;;;;5016382;28;20077;-54
2023/12/27 04:39:56;;;;;;;13.90;6.80;;;1.40;99.90;;;;;;5013233;28;20119;-58
2023/12/27 04:42:24;;;;;;;13.05;6.85;;;1.40;99.90;;;;;;5029377;28;20120;-56
2023/12/27 04:44:51;;;;;;;13.25;7.35;;;1.40;99.90;;;;;;5030975;28;20493;-58
2023/12/27 04:47:18;;;;;;;13.38;6.45;;;1.40;99.90;;;;;;5019289;28;20521;-57
2023/12/27 04:49:45;;;;;;;;;;;1.40;99.90;;;;;;5023217;28;20032;-56
2023/12/27 04:52:12;;;;;;;16.00;7.40;;;1.30;99.90;;;;;;5034112;28;20267;-57
2023/12/27 04:54:39;;;;;;;11.35;6.45;;;1.40;99.90;;;;;;5015436;28;20045;-55
2023/12/27 04:57:06;;;;;;;13.27;6.53;;;1.30;99.90;;;;;;5014714;28;20453;-59
2023/12/27 04:59:33;;;;;;;11.85;6.38;;;1.30;99.90;;;;;;5034126;28;20121;-55
2023/12/27 05:02:00;;;;;;;12.63;6.68;;;1.30;99.90;;;;;;5014467;28;20037;-54
2023/12/27 05:04:26;;;;;;;12.48;6.70;;;1.30;99.90;;;;;;5030514;28;20116;-56
2023/12/27 05:06:54;;;;;;;13.57;7.07;;;1.30;99.90;;;;;;5014963;28;20490;-57
2023/12/27 05:09:21;;;;;;;13.60;6.35;;;1.30;99.90;;;;;;5015589;28;20053;-56
2023/12/27 05:11:48;;;;;;;11.43;6.60;;;1.30;99.90;;;;;;5022167;28;20053;-54
2023/12/27 05:14:16;;;;;;;9.15;4.50;;;1.30;99.90;;;;;;5033506;28;20409;-59
2023/12/27 05:16:46;;;;;;;12.23;6.68;;;1.30;99.90;;;;;;5032981;28;20038;-57
2023/12/27 05:19:13;;;;;;;14.98;6.70;;;1.30;99.90;;;;;;5033734;28;20053;-55
2023/12/27 05:21:40;;;;;;;13.75;6.10;;;1.30;99.90;;;;;;5027280;28;20046;-57
2023/12/27 05:24:07;;;;;;;9.25;4.82;;;1.30;99.90;;;;;;5033358;28;20080;-56
2023/12/27 05:26:34;;;;;;;13.23;6.53;;;1.30;99.90;;;;;;5033220;28;20537;-58
2023/12/27 05:29:00;;;;;;;12.25;6.88;;;1.30;99.90;;;;;;5020910;28;20045;-55
2023/12/27 05:31:27;;;;;;;12.80;6.57;;;1.30;99.90;;;;;;5028028;28;20422;-55
2023/12/27 05:33:54;;;;;;;10.43;6.15;;;1.30;99.90;;;;;;5029152;28;20104;-55
2023/12/27 05:36:21;;;;;;;;;;;1.30;99.90;;;;;;5028141;28;20069;-56
2023/12/27 05:38:48;;;;;;;11.68;5.85;;;1.30;99.90;;;;;;5032246;28;20507;-56
2023/12/27 05:41:17;;;;;;;8.88;4.85;;;1.30;99.90;;;;;;5027971;28;20065;-56
2023/12/27 05:43:44;;;;;;;13.48;6.15;;;1.30;99.90;;;;;;5032448;28;20088;-57
2023/12/27 05:46:11;;;;;;;14.02;6.38;;;1.30;99.90;;;;;;5032543;28;20053;-55
2023/12/27 05:48:38;;;;;;;16.33;6.45;;;1.30;99.90;;;;;;5028149;28;20041;-55
2023/12/27 05:51:05;;;;;;;13.32;6.28;;;1.20;99.90;;;;;;5032611;28;20048;-55
2023/12/27 05:53:32;;;;;;;17.95;7.25;;;1.20;99.90;;;;;;5032528;28;20041;-57
2023/12/27 05:55:59;;;;;;;14.27;7.57;;;1.20;99.90;;;;;;5025373;28;20546;-58
2023/12/27 05:58:26;;;;;;;13.20;7.03;;;1.10;99.90;;;;;;5032520;28;20049;-55
2023/12/27 06:00:53;;;;;;;16.25;7.82;;;1.10;99.90;;;;;;5030268;28;20041;-56
2023/12/27 06:03:23;;;;;;;17.27;7.03;;;1.00;99.90;;;;;;5032884;28;20111;-54
2023/12/27 06:05:50;;;;;;;18.15;7.47;;;0.90;99.90;;;;;;5029198;28;20509;-59
2023/12/27 06:08:20;;;;;;;14.50;7.22;;;0.90;99.90;;;;;;5032357;28;20052;-54
2023/12/27 06:10:47;;;;;;;15.35;7.40;;;0.90;99.90;;;;;;5029395;28;20128;-59
2023/12/27 06:13:14;;;;;;;11.73;5.43;;;0.80;99.90;;;;;;5032021;28;20055;-60
2023/12/27 06:15:41;;;;;;;14.70;6.90;;;0.80;99.90;;;;;;5031674;28;20128;-56
2023/12/27 06:18:08;;;;;;;14.85;7.75;;;0.90;99.90;;;;;;5022098;28;20435;-57
2023/12/27 06:20:35;;;;;;;14.32;7.07;;;0.80;99.90;;;;;;5027710;28;20533;-56
2023/12/27 06:23:02;;;;;;;16.92;8.63;;;0.80;99.90;;;;;;5032144;28;20049;-56
2023/12/27 06:25:29;;;;;;;13.85;7.63;;;0.80;99.90;;;;;;5030287;28;20041;-57
2023/12/27 06:27:55;;;;;;;15.40;7.55;;;0.80;99.90;;;;;;5031976;28;20041;-57
2023/12/27 06:30:23;;;;;;;18.83;8.65;;;0.80;99.90;;;;;;5030669;28;20486;-54
2023/12/27 06:32:49;;;;;;;18.08;8.73;;;0.70;99.90;;;;;;5032238;28;20045;-55
2023/12/27 06:35:16;;;;;;;17.80;8.20;;;0.70;99.90;;;;;;5031492;28;20084;-56
2023/12/27 06:37:43;;;;;;;15.07;7.72;;;0.70;99.90;;;;;;5031431;28;20047;-57
2023/12/27 06:40:12;;;;;;;32.55;15.05;;;0.70;99.90;;;;;;5025277;28;20147;-57
2023/12/27 06:42:39;;;;;;;34.55;15.70;;;0.70;99.90;;;;;;5032155;28;20509;-55
2023/12/27 06:45:07;;;;;;;30.85;14.13;;;0.70;99.90;;;;;;5031931;28;20091;-56
2023/12/27 06:47:34;;;;;;;28.40;12.35;;;0.70;99.90;;;;;;5031716;28;20042;-55
2023/12/27 06:50:00;;;;;;;22.25;9.73;;;0.70;99.90;;;;;;5025555;28;20444;-55
2023/12/27 06:52:28;;;;;;;21.48;8.02;;;0.70;99.90;;;;;;5030435;28;20564;-56
2023/12/27 06:54:54;;;;;;;;;;;0.70;99.90;;;;;;5030649;28;20088;-54
2023/12/27 06:57:22;;;;;;;18.33;9.60;;;0.80;99.90;;;;;;5023309;28;19921;-55
2023/12/27 06:59:50;;;;;;;17.30;8.32;;;0.80;99.90;;;;;;5030302;28;20084;-54
2023/12/27 07:02:17;;;;;;;14.18;8.35;;;0.80;99.90;;;;;;5028571;28;20743;-55
2023/12/27 07:04:43;;;;;;;11.43;5.78;;;0.70;99.90;;;;;;5028655;28;20516;-56
2023/12/27 07:07:10;;;;;;;18.27;8.23;;;0.70;99.90;;;;;;5025411;28;20155;-57
2023/12/27 07:09:37;;;;;;;13.68;8.20;;;0.80;99.90;;;;;;5011399;28;20056;-54
2023/12/27 07:12:04;;;;;;;12.52;6.85;;;0.80;99.90;;;;;;5028968;28;20045;-60
2023/12/27 07:14:31;;;;;;;11.93;6.57;;;0.80;99.90;;;;;;5023055;28;20044;-56
2023/12/27 07:16:58;;;;;;;15.98;8.57;;;0.80;99.90;;;;;;5030734;28;20044;-56
2023/12/27 07:19:25;;;;;;;16.67;8.50;;;0.80;99.90;;;;;;5031020;28;20041;-54
2023/12/27 07:21:52;;;;;;;15.88;7.82;;;0.80;99.90;;;;;;5026701;28;20046;-55
2023/12/27 07:24:18;;;;;;;14.57;8.15;;;0.80;99.90;;;;;;5022121;28;20025;-54
2023/12/27 07:26:45;;;;;;;11.13;6.50;;;0.80;99.90;;;;;;5034442;28;20038;-58
2023/12/27 07:29:12;;;;;;;13.07;7.78;;;0.90;99.90;;;;;;5017115;28;20525;-59
2023/12/27 07:31:39;;;;;;;14.77;7.18;;;0.80;99.90;;;;;;5029458;28;20068;-54
2023/12/27 07:34:06;;;;;;;16.25;7.80;;;0.80;99.90;;;;;;5034798;28;20402;-55
2023/12/27 07:36:33;;;;;;;17.67;8.40;;;0.80;99.90;;;;;;5033974;28;20064;-54
2023/12/27 07:39:00;;;;;;;18.95;8.07;;;0.80;99.90;;;;;;5034674;28;20037;-54
2023/12/27 07:41:27;;;;;;;18.73;8.90;;;0.80;99.90;;;;;;5029800;28;20095;-55
2023/12/27 07:43:54;;;;;;;12.07;7.20;;;0.80;99.90;;;;;;5028903;28;20050;-56
2023/12/27 07:46:20;;;;;;;19.83;8.63;;;0.80;99.90;;;;;;5026989;28;20073;-56
2023/12/27 07:48:47;;;;;;;14.02;8.23;;;0.80;99.90;;;;;;5015928;28;20071;-55
2023/12/27 07:51:14;;;;;;;16.98;8.40;;;0.80;99.90;;;;;;5034845;28;20405;-56
2023/12/27 07:53:41;;;;;;;19.92;10.43;;;0.80;99.90;;;;;;5027950;28;20049;-55
2023/12/27 07:56:09;;;;;;;14.77;8.10;;;0.80;99.90;;;;;;5034752;28;20422;-56
2023/12/27 07:58:36;;;;;;;14.68;7.90;;;0.80;99.90;;;;;;5033959;28;20057;-58
2023/12/27 08:01:03;;;;;;;9.93;5.93;;;0.80;99.90;;;;;;5034209;28;20029;-54
2023/12/27 08:03:30;;;;;;;15.18;10.00;;;0.90;99.90;;;;;;5026400;28;20033;-60
2023/12/27 08:05:57;;;;;;;18.40;9.43;;;1.00;99.90;;;;;;5031187;28;20065;-60
2023/12/27 08:08:25;;;;;;;13.98;8.73;;;1.00;99.90;;;;;;5033981;28;20033;-57
2023/12/27 08:10:52;;;;;;;19.73;8.77;;;1.00;99.90;;;;;;5026567;28;20072;-55
2023/12/27 08:13:19;;;;;;;16.20;10.10;;;1.00;99.90;;;;;;5034250;28;20104;-54
2023/12/27 08:15:46;;;;;;;11.80;6.32;;;0.90;99.90;;;;;;5033733;28;20063;-56
2023/12/27 08:18:15;;;;;;;14.70;8.35;;;0.90;99.90;;;;;;5032528;28;20042;-54
2023/12/27 08:20:41;;;;;;;14.90;7.72;;;0.90;99.90;;;;;;5034741;28;20503;-54
2023/12/27 08:23:08;;;;;;;14.05;7.68;;;1.00;99.90;;;;;;5034241;28;20041;-58
2023/12/27 08:25:36;;;;;;;16.42;7.75;;;0.90;99.90;;;;;;5034057;28;20371;-55
2023/12/27 08:28:04;;;;;;;13.68;8.20;;;0.90;99.90;;;;;;5029871;28;20052;-57
2023/12/27 08:30:31;;;;;;;22.75;10.55;;;0.90;99.90;;;;;;5034556;28;20045;-54
2023/12/27 08:32:59;;;;;;;19.92;9.93;;;1.00;99.90;;;;;;5034544;28;20077;-55
2023/12/27 08:35:26;;;;;;;19.45;9.25;;;1.00;99.90;;;;;;5025841;28;20452;-54
2023/12/27 08:37:53;;;;;;;12.85;5.95;;;1.00;99.90;;;;;;5033694;28;20033;-56
2023/12/27 08:40:20;;;;;;;17.02;8.20;;;1.00;99.90;;;;;;5030214;28;20041;-58
2023/12/27 08:42:47;;;;;;;15.23;7.20;;;1.10;99.90;;;;;;5016490;28;20046;-56
2023/12/27 08:45:14;;;;;;;14.90;7.50;;;1.10;99.90;;;;;;5022780;28;20049;-55
2023/12/27 08:47:42;;;;;;;;;;;1.20;99.90;;;;;;5017564;28;20057;-59
2023/12/27 08:50:09;;;;;;;10.40;5.05;;;1.30;99.90;;;;;;5031810;28;19929;-55
2023/12/27 08:52:38;;;;;;;14.02;6.72;;;1.40;99.90;;;;;;5034061;28;20562;-56
2023/12/27 08:55:10;;;;;;;11.30;6.60;;;1.60;99.90;;;;;;5032970;28;20486;-56
2023/12/27 08:57:37;;;;;;;12.60;6.45;;;1.70;99.90;;;;;;5020081;28;20092;-59
2023/12/27 09:00:10;;;;;;;15.48;6.90;;;1.90;99.90;;;;;;5027101;28;20052;-57
2023/12/27 09:02:40;;;;;;;13.07;7.65;;;2.00;99.90;;;;;;5030187;28;20048;-54
2023/12/27 09:05:07;;;;;;;15.88;7.63;;;2.10;99.90;;;;;;5025746;28;20041;-55
2023/12/27 09:07:34;;;;;;;13.00;6.35;;;2.20;99.90;;;;;;5030958;28;20048;-54
2023/12/27 09:10:01;;;;;;;12.43;6.68;;;2.20;99.90;;;;;;5032606;28;20037;-54
2023/12/27 09:12:28;;;;;;;18.40;8.52;;;2.30;99.90;;;;;;5025698;28;20042;-55
2023/12/27 09:14:55;;;;;;;15.55;7.95;;;2.30;99.90;;;;;;5026704;28;20048;-54
2023/12/27 09:17:22;;;;;;;10.40;5.82;;;2.40;99.90;;;;;;5033034;28;20041;-56
2023/12/27 09:19:49;;;;;;;11.18;5.00;;;2.40;99.90;;;;;;5032409;28;20037;-54
2023/12/27 09:22:16;;;;;;;9.55;5.47;;;2.40;99.90;;;;;;5031871;28;20046;-54
2023/12/27 09:24:43;;;;;;;10.13;5.63;;;2.50;99.90;;;;;;5033043;28;20501;-55
2023/12/27 09:27:13;;;;;;;11.55;6.10;;;2.60;99.90;;;;;;5032825;28;20063;-57
2023/12/27 09:29:42;;;;;;;15.35;6.55;;;2.70;99.90;;;;;;5025379;28;20057;-54
2023/12/27 09:32:09;;;;;;;14.98;6.28;;;2.90;99.90;;;;;;5033445;28;20051;-54
2023/12/27 09:34:36;;;;;;;10.45;5.57;;;3.10;99.90;;;;;;5028166;28;20084;-57
2023/12/27 09:37:03;;;;;;;13.05;6.07;;;3.20;99.90;;;;;;5023529;28;20037;-55
2023/12/27 09:39:30;;;;;;;16.83;6.85;;;3.30;99.90;;;;;;5028044;28;20056;-59
2023/12/27 09:41:57;;;;;;;10.50;5.15;;;3.40;99.90;;;;;;5028195;28;20037;-58
2023/12/27 09:44:24;;;;;;;10.63;5.90;;;3.50;99.90;;;;;;5023602;28;20918;-57
2023/12/27 09:46:51;;;;;;;9.43;5.45;;;3.50;99.90;;;;;;5031219;28;20041;-54
2023/12/27 09:49:20;;;;;;;12.10;5.63;;;3.60;99.90;;;;;;5022741;28;20564;-57
2023/12/27 09:51:47;;;;;;;12.55;5.90;;;3.60;99.90;;;;;;5025945;28;20103;-57
2023/12/27 09:54:16;;;;;;;11.32;5.70;;;3.50;99.90;;;;;;5021597;28;20062;-57
2023/12/27 09:56:44;;;;;;;14.85;7.25;;;3.50;99.90;;;;;;5028594;28;20038;-54
2023/12/27 09:59:17;;;;;;;11.70;6.88;;;3.60;99.90;;;;;;5018680;28;20046;-55
2023/12/27 10:01:50;;;;;;;11.13;5.93;;;3.70;99.90;;;;;;5025865;28;20490;-59
2023/12/27 10:04:28;;;;;;;9.65;5.55;;;3.70;99.90;;;;;;5028152;28;20518;-55
2023/12/27 10:06:57;;;;;;;12.15;6.22;;;3.70;99.90;;;;;;5028174;28;20064;-59
2023/12/27 10:09:24;;;;;;;10.57;5.60;;;3.80;99.90;;;;;;5026035;28;20135;-56
2023/12/27 10:11:51;;;;;;;8.45;5.10;;;3.90;99.90;;;;;;5023080;28;21311;-57
2023/12/27 10:14:19;;;;;;;12.50;6.35;;;3.90;99.90;;;;;;5024065;28;20037;-57
2023/12/27 10:16:46;;;;;;;12.80;6.45;;;4.00;99.90;;;;;;5025729;28;20121;-58
2023/12/27 10:19:39;;;;;;;10.93;5.90;;;4.00;99.90;;;;;;5009871;28;20038;-56
2023/12/27 10:22:06;;;;;;;12.52;6.70;;;4.00;99.90;;;;;;5027396;28;20049;-56
2023/12/27 10:24:34;;;;;;;;;;;4.10;99.90;;;;;;5029185;28;20465;-60
2023/12/27 10:27:03;;;;;;;9.77;4.72;;;4.20;99.90;;;;;;5027502;28;19920;-59
2023/12/27 10:29:32;;;;;;;11.48;5.07;;;4.30;99.90;;;;;;5027396;28;20049;-59
2023/12/27 10:32:00;;;;;;;10.73;5.18;;;4.30;99.90;;;;;;5014296;28;20069;-57
2023/12/27 10:34:27;;;;;;;14.10;6.30;;;4.40;99.90;;;;;;5031774;28;20120;-54
2023/12/27 10:36:58;;;;;;;12.38;5.18;;;4.50;99.90;;;;;;5028344;28;20100;-55
2023/12/27 10:39:25;;;;;;;10.45;4.75;;;4.60;99.90;;;;;;5021442;28;20041;-58
2023/12/27 10:41:53;;;;;;;;;;;4.80;99.90;;;;;;5026817;28;20057;-57
2023/12/27 10:44:20;;;;;;;9.13;5.40;;;4.90;99.90;;;;;;5027374;28;20555;-55
2023/12/27 10:46:51;;;;;;;8.20;4.53;;;4.90;99.90;;;;;;5023543;28;20099;-57
2023/12/27 10:49:22;;;;;;;9.25;5.22;;;4.80;99.90;;;;;;5027151;28;20317;-56
2023/12/27 10:51:51;;;;;;;9.20;4.88;;;4.70;99.90;;;;;;5024499;28;20029;-58
2023/12/27 10:54:21;;;;;;;9.93;4.90;;;4.80;99.90;;;;;;5023867;28;20033;-56
2023/12/27 10:56:52;;;;;;;9.38;4.45;;;4.80;99.90;;;;;;5022056;28;20065;-55
2023/12/27 10:59:19;;;;;;;12.30;4.93;;;4.70;99.90;;;;;;5024752;28;20475;-56
2023/12/27 11:01:46;;;;;;;7.95;3.97;;;4.80;99.90;;;;;;5030471;28;20112;-55
2023/12/27 11:04:15;;;;;;;8.75;4.15;;;4.90;99.90;;;;;;5027204;28;20053;-54
2023/12/27 11:06:45;;;;;;;8.80;4.53;;;5.10;99.90;;;;;;5025383;28;20072;-60
2023/12/27 11:09:13;;;;;;;7.72;3.88;;;5.20;99.90;;;;;;5022790;28;20038;-55
2023/12/27 11:11:41;;;;;;;8.00;4.07;;;5.30;99.90;;;;;;5028461;28;20629;-55
2023/12/27 11:14:11;;;;;;;21.20;7.97;;;5.30;99.90;;;;;;5024826;28;20509;-56
2023/12/27 11:16:42;;;;;;;27.70;8.23;;;5.40;99.90;;;;;;5030946;28;20068;-59
2023/12/27 11:19:09;;;;;;;7.85;3.55;;;5.50;99.90;;;;;;5028235;28;20029;-57
2023/12/27 11:21:37;;;;;;;5.78;2.78;;;5.50;99.90;;;;;;5029091;28;20049;-54
2023/12/27 11:24:05;;;;;;;6.07;3.35;;;5.50;99.90;;;;;;5023847;28;20037;-54
2023/12/27 11:26:36;;;;;;;23.60;10.30;;;5.60;99.90;;;;;;5026294;28;20092;-58
2023/12/27 11:29:08;;;;;;;26.70;13.05;;;5.60;99.90;;;;;;5025387;28;20506;-56
2023/12/27 11:31:39;;;;;;;7.90;4.20;;;5.70;99.90;;;;;;5017994;28;20038;-57
2023/12/27 11:34:06;;;;;;;6.15;3.65;;;5.70;99.90;;;;;;5027620;28;20050;-56
2023/12/27 11:36:34;;;;;;;6.68;2.90;;;5.70;99.90;;;;;;5026626;28;20048;-56
2023/12/27 11:39:18;;;;;;;9.90;2.95;;;5.80;99.90;;;;;;5024169;28;20041;-55
2023/12/27 11:41:45;;;;;;;7.85;3.70;;;5.90;99.90;;;;;;5022631;28;20034;-55
2023/12/27 11:44:14;;;;;;;7.47;4.00;;;5.90;99.90;;;;;;5021741;28;20042;-56
2023/12/27 11:46:43;;;;;;;9.05;3.33;;;5.90;99.90;;;;;;5025610;28;20088;-55
2023/12/27 11:49:18;;;;;;;12.57;5.93;;;5.90;99.90;;;;;;5025065;28;20076;-54
2023/12/27 11:51:45;;;;;;;14.68;5.95;;;6.10;99.90;;;;;;5024508;28;20045;-57
2023/12/27 11:54:22;;;;;;;21.30;8.63;;;6.10;99.90;;;;;;5023908;28;20041;-56
2023/12/27 11:56:51;;;;;;;12.88;4.70;;;6.20;99.90;;;;;;5023517;28;20073;-56
2023/12/27 11:59:18;;;;;;;15.07;5.68;;;6.20;99.90;;;;;;5021790;28;20052;-57
2023/12/27 12:01:46;;;;;;;;;;;6.10;99.90;;;;;;5024466;28;20121;-54
2023/12/27 12:04:26;;;;;;;5.50;3.00;;;6.10;99.90;;;;;;5022733;28;19952;-59
2023/12/27 12:06:53;;;;;;;12.43;2.92;;;6.10;99.90;;;;;;5026979;28;20041;-57
2023/12/27 12:09:31;;;;;;;;;;;6.10;99.90;;;;;;5025577;28;20144;-58
2023/12/27 12:12:20;;;;;;;4.45;2.05;;;6.10;99.90;;;;;;5023092;28;20026;-59
2023/12/27 12:14:51;;;;;;;5.47;3.10;;;6.20;99.90;;;;;;5027154;28;20492;-54
2023/12/27 12:17:23;;;;;;;5.05;3.35;;;6.30;99.90;;;;;;5034047;28;20042;-59
2023/12/27 12:19:50;;;;;;;;;;;6.40;99.90;;;;;;5034378;28;20046;-56
2023/12/27 12:22:18;;;;;;;5.15;2.85;;;6.50;99.90;;;;;;5031645;28;20007;-58
2023/12/27 12:24:45;;;;;;;7.68;2.47;;;6.60;99.90;;;;;;5032402;28;20076;-55
2023/12/27 12:27:15;;;;;;;;;;;6.70;99.90;;;;;;5030799;28;20897;-58
2023/12/27 12:29:44;;;;;;;4.32;2.50;;;6.80;99.90;;;;;;5029115;28;19990;-55
2023/12/27 12:32:13;;;;;;;4.88;2.28;;;6.90;99.90;;;;;;5030914;28;20073;-57
2023/12/27 12:34:42;;;;;;;7.10;2.53;;;7.00;99.90;;;;;;5029526;28;20490;-57
2023/12/27 12:37:10;;;;;;;;;;;7.00;99.90;;;;;;5029751;28;20103;-56
2023/12/27 12:39:36;;;;;;;5.47;2.35;;;7.10;99.90;;;;;;5025261;28;19921;-55
2023/12/27 12:42:04;;;;;;;5.10;2.08;;;7.20;99.90;;;;;;5025235;28;20402;-58
2023/12/27 12:44:32;;;;;;;7.10;2.50;;;7.30;99.90;;;;;;5026630;28;20066;-55
2023/12/27 12:46:59;;;;;;;6.68;2.92;;;7.30;99.90;;;;;;5028833;28;20056;-57
2023/12/27 12:49:27;;;;;;;4.95;2.65;;;7.40;99.90;;;;;;5021494;28;20034;-57
2023/12/27 12:52:04;;;;;;;8.00;2.70;;;7.40;99.90;;;;;;5029714;28;20160;-55
2023/12/27 12:54:32;;;;;;;4.90;2.50;;;7.40;99.90;;;;;;5027917;28;20041;-54
2023/12/27 12:57:03;;;;;;;9.68;2.97;;;7.40;99.90;;;;;;5025408;28;20049;-60
2023/12/27 12:59:30;;;;;;;5.00;2.70;;;7.40;99.90;;;;;;5032740;28;20041;-58